Time;durP1;ratioP1;P1;durP2;ratioP2;P2;SDS_P1;SDS_P2;PMS_P1;PMS_P2;Temp;Humidity;BMP_temperature;BMP_pressure;BME280_temperature;BME280_humidity;BME280_pressure;Samples;Min_cycle;Max_cycle;Signal;HPM_P1;HPM_P2
2023/02/13 00:00:20;;;;;;;15.98;7.68;;;;;;;6.92;84.08;102390.19;5071750;28;20048;-48
2023/02/13 00:02:50;;;;;;;14.73;8.50;;;;;;;6.95;83.75;102381.38;5042654;28;20063;-47
2023/02/13 00:05:17;;;;;;;18.02;7.70;;;;;;;6.96;83.99;102383.03;5069846;28;20654;-47
2023/02/13 00:07:44;;;;;;;15.52;8.45;;;;;;;6.97;83.89;102384.66;5072298;28;20585;-48
2023/02/13 00:10:11;;;;;;;20.67;8.18;;;;;;;6.97;84.13;102376.41;5050473;28;20094;-47
2023/02/13 00:12:38;;;;;;;14.75;8.20;;;;;;;6.96;84.19;102383.03;5071539;28;20041;-47
2023/02/13 00:15:06;;;;;;;18.23;9.65;;;;;;;6.95;84.48;102375.88;5071168;28;20070;-47
2023/02/13 00:17:33;;;;;;;19.45;8.23;;;;;;;6.94;84.34;102370.63;5072109;28;20044;-46
2023/02/13 00:19:59;;;;;;;14.73;6.95;;;;;;;6.92;84.72;102378.34;5071022;28;20116;-48
2023/02/13 00:22:26;;;;;;;18.88;9.45;;;;;;;6.90;84.61;102375.06;5070735;28;20098;-47
2023/02/13 00:24:53;;;;;;;14.98;8.23;;;;;;;6.91;84.72;102376.72;5071651;28;20083;-47
2023/02/13 00:27:20;;;;;;;19.17;9.32;;;;;;;6.90;84.62;102377.81;5071632;28;20460;-47
2023/02/13 00:29:47;;;;;;;15.35;8.88;;;;;;;6.89;84.88;102376.97;5053092;28;20044;-53
2023/02/13 00:32:13;;;;;;;16.63;10.00;;;;;;;6.90;84.95;102370.38;5070864;28;20405;-47
2023/02/13 00:34:42;;;;;;;20.08;11.43;;;;;;;6.90;84.90;102380.56;5070289;28;20076;-48
2023/02/13 00:37:09;;;;;;;22.30;9.65;;;;;;;6.88;84.76;102377.28;5067934;28;20052;-47
2023/02/13 00:39:36;;;;;;;20.55;9.27;;;;;;;6.88;84.82;102380.03;5065088;28;20045;-52
2023/02/13 00:42:04;;;;;;;17.50;10.40;;;;;;;6.88;84.90;102388.28;5060298;28;20536;-47
2023/02/13 00:44:31;;;;;;;19.08;9.43;;;;;;;6.87;84.80;102389.38;5070730;28;20040;-48
2023/02/13 00:46:58;;;;;;;21.00;9.40;;;;;;;6.86;84.88;102382.25;5071028;28;20862;-48
2023/02/13 00:49:25;;;;;;;17.17;8.82;;;;;;;6.84;84.84;102378.94;5071136;28;20139;-47
2023/02/13 00:51:51;;;;;;;15.45;8.77;;;;;;;6.83;85.06;102377.28;5070762;28;20135;-48
2023/02/13 00:54:19;;;;;;;14.25;7.90;;;;;;;6.80;85.05;102369.59;5052494;28;20455;-47
2023/02/13 00:56:47;;;;;;;19.33;10.02;;;;;;;6.77;85.16;102361.91;5071072;28;20476;-47
2023/02/13 00:59:14;;;;;;;20.02;10.00;;;;;;;6.74;85.19;102361.34;5071480;28;20068;-47
2023/02/13 01:01:41;;;;;;;14.50;7.80;;;;;;;6.71;85.46;102359.16;5056634;28;20080;-47
2023/02/13 01:04:08;;;;;;;15.32;8.30;;;;;;;6.69;85.42;102361.38;5070562;28;20490;-48
2023/02/13 01:06:36;;;;;;;24.70;9.70;;;;;;;6.67;85.48;102360.00;5070443;28;20044;-47
2023/02/13 01:09:04;;;;;;;18.10;8.75;;;;;;;6.65;85.45;102354.75;5070220;28;20071;-51
2023/02/13 01:11:30;;;;;;;22.40;9.73;;;;;;;6.65;85.55;102359.44;5070019;28;20127;-47
2023/02/13 01:13:57;;;;;;;17.00;9.25;;;;;;;6.62;85.25;102355.31;5070201;28;20486;-48
2023/02/13 01:16:24;;;;;;;16.90;8.95;;;;;;;6.60;85.51;102363.03;5071072;28;20135;-46
2023/02/13 01:18:51;;;;;;;16.48;8.60;;;;;;;6.59;85.55;102358.63;5071166;28;20043;-48
2023/02/13 01:21:20;;;;;;;16.90;9.00;;;;;;;6.57;85.58;102363.59;5070622;28;20133;-49
2023/02/13 01:23:47;;;;;;;17.13;9.23;;;;;;;6.57;85.58;102357.25;5049362;28;20557;-47
2023/02/13 01:26:22;;;;;;;17.70;8.65;;;;;;;6.54;85.65;102353.13;5066973;28;20428;-51
2023/02/13 01:28:54;;;;;;;24.80;9.75;;;;;;;6.52;85.96;102371.03;5070362;28;20134;-47
2023/02/13 01:31:21;;;;;;;16.15;8.32;;;;;;;6.51;85.90;102355.66;5066263;28;20454;-47
2023/02/13 01:33:48;;;;;;;17.63;8.98;;;;;;;6.49;86.04;102355.91;5064082;28;20663;-47
2023/02/13 01:36:15;;;;;;;15.60;9.38;;;;;;;6.47;85.97;102347.13;5063907;28;20032;-48
2023/02/13 01:38:42;;;;;;;23.45;10.30;;;;;;;6.46;85.90;102350.16;5064193;28;20048;-50
2023/02/13 01:41:09;;;;;;;17.52;9.98;;;;;;;6.44;86.20;102347.66;5066850;28;20143;-47
2023/02/13 01:43:45;;;;;;;14.63;8.60;;;;;;;6.41;86.36;102350.97;5060979;28;20106;-47
2023/02/13 01:46:18;;;;;;;21.30;10.45;;;;;;;6.39;86.18;102344.94;5048744;28;20135;-46
2023/02/13 01:48:47;;;;;;;17.63;9.43;;;;;;;6.38;86.27;102346.03;5064583;28;20041;-46
2023/02/13 01:51:19;;;;;;;28.55;10.30;;;;;;;6.35;86.18;102349.34;5067711;28;20425;-48
2023/02/13 01:54:06;;;;;;;18.48;9.00;;;;;;;6.31;86.61;102342.75;5063869;28;20114;-47
2023/02/13 01:56:41;;;;;;;19.17;8.30;;;;;;;6.31;86.62;102341.91;5068491;28;20474;-47
2023/02/13 01:59:15;;;;;;;19.95;9.18;;;;;;;6.29;86.51;102339.47;5062633;28;20048;-47
2023/02/13 02:01:46;;;;;;;20.20;9.93;;;;;;;6.29;86.47;102344.13;5065284;28;20053;-46
2023/02/13 02:04:18;;;;;;;17.50;9.35;;;;;;;6.28;86.77;102342.47;5069271;28;20487;-48
2023/02/13 02:06:53;;;;;;;17.90;9.27;;;;;;;6.26;86.75;102342.75;5067310;28;20044;-47
2023/02/13 02:09:26;;;;;;;18.50;9.40;;;;;;;6.26;86.60;102347.44;5061111;28;20395;-47
2023/02/13 02:12:21;;;;;;;17.70;9.13;;;;;;;6.24;86.76;102342.22;5038669;28;20107;-47
2023/02/13 02:14:49;;;;;;;25.00;11.55;;;;;;;6.23;86.56;102343.31;5065260;28;20099;-47
2023/02/13 02:17:16;;;;;;;14.88;8.63;;;;;;;6.23;86.80;102346.06;5069175;28;20516;-47
2023/02/13 02:20:01;;;;;;;17.90;8.68;;;;;;;6.22;86.90;102338.94;5065428;28;20040;-49
2023/02/13 02:22:31;;;;;;;17.45;8.75;;;;;;;6.20;86.96;102346.59;5061836;28;20478;-47
2023/02/13 02:25:15;;;;;;;16.52;8.45;;;;;;;6.15;86.77;102341.13;5068607;28;20068;-49
2023/02/13 02:27:51;;;;;;;17.85;8.50;;;;;;;6.09;86.87;102334.78;5068905;28;20114;-47
2023/02/13 02:30:33;;;;;;;14.30;8.05;;;;;;;6.05;87.05;102332.88;5068643;28;20071;-46
2023/02/13 02:33:13;;;;;;;19.50;8.32;;;;;;;6.04;87.22;102333.97;5065495;28;20040;-49
2023/02/13 02:36:19;;;;;;;17.55;8.88;;;;;;;6.04;87.04;102321.06;5060900;28;20045;-49
2023/02/13 02:39:15;;;;;;;15.18;8.68;;;;;;;6.03;86.89;102319.44;5039903;28;20390;-47
2023/02/13 02:41:56;;;;;;;17.98;7.38;;;;;;;6.05;86.94;102321.88;5064724;28;20109;-47
2023/02/13 02:44:32;;;;;;;21.67;9.00;;;;;;;6.04;86.87;102323.81;5056695;28;20172;-49
2023/02/13 02:50:02;;;;;;;17.77;7.43;;;;;;;6.05;86.74;102316.38;5064622;28;20072;-46
2023/02/13 02:53:07;;;;;;;19.63;9.90;;;;;;;6.04;86.81;102325.72;5065564;28;20032;-47
2023/02/13 02:55:37;;;;;;;12.93;7.07;;;;;;;6.02;86.76;102311.44;5025916;28;20074;-47
2023/02/13 03:06:56;;;;;;;15.77;8.00;;;;;;;5.91;86.91;102310.63;5068246;28;20060;-51
2023/02/13 03:15:07;;;;;;;17.52;8.93;;;;;;;5.70;87.13;102308.94;5068889;28;20079;-45
2023/02/13 03:23:27;;;;;;;16.85;8.20;;;;;;;5.56;87.43;102293.28;5054961;28;20394;-49
2023/02/13 03:26:17;;;;;;;17.45;8.20;;;;;;;5.50;87.23;102293.28;5068327;28;20052;-49
2023/02/13 03:31:29;;;;;;;18.08;8.25;;;;;;;5.54;87.70;102282.56;5068535;28;20070;-45
2023/02/13 03:34:09;;;;;;;19.98;8.63;;;;;;;5.61;87.74;102291.38;5072495;28;20401;-46
2023/02/13 03:40:05;;;;;;;20.88;8.43;;;;;;;5.73;87.67;102280.91;5059133;28;20064;-45
2023/02/13 03:42:50;;;;;;;16.75;8.05;;;;;;;5.80;88.06;102289.69;5070817;28;20051;-45
2023/02/13 03:45:55;;;;;;;19.98;7.10;;;;;;;5.85;87.86;102288.94;5071627;28;20471;-47
2023/02/13 03:51:20;;;;;;;18.58;8.10;;;;;;;5.94;87.75;102290.00;5061275;28;20097;-45
2023/02/13 03:53:52;;;;;;;13.38;6.95;;;;;;;5.97;87.83;102286.69;5054161;28;20131;-45
2023/02/13 03:59:17;;;;;;;17.92;8.45;;;;;;;6.01;88.35;102294.13;5063472;28;20036;-45
2023/02/13 04:01:50;;;;;;;17.80;7.82;;;;;;;6.02;88.29;102284.78;5063714;28;20080;-48
2023/02/13 04:04:35;;;;;;;15.00;8.60;;;;;;;6.03;88.26;102277.34;5053012;28;20080;-46
2023/02/13 04:07:06;;;;;;;13.23;6.25;;;;;;;6.02;88.52;102281.19;5060712;28;20047;-46
2023/02/13 04:09:37;;;;;;;18.17;7.35;;;;;;;6.03;88.44;102280.09;5071933;28;20924;-49
2023/02/13 04:12:25;;;;;;;18.27;7.27;;;;;;;6.03;88.42;102280.09;5067786;28;20059;-45
2023/02/13 04:14:58;;;;;;;13.60;6.32;;;;;;;6.02;88.65;102283.94;5071058;28;20072;-48
2023/02/13 04:17:58;;;;;;;14.60;6.75;;;;;;;6.01;88.75;102282.31;5071551;28;20442;-46
2023/02/13 04:20:30;;;;;;;19.15;7.78;;;;;;;6.01;88.56;102285.06;5045190;28;20068;-45
2023/02/13 04:23:02;;;;;;;26.63;9.48;;;;;;;6.01;88.75;102280.38;5071336;28;20055;-45
2023/02/13 04:25:29;;;;;;;15.73;6.97;;;;;;;6.01;88.92;102280.38;5072052;28;20051;-51
2023/02/13 04:27:56;;;;;;;14.45;7.75;;;;;;;6.00;88.92;102277.91;5071332;28;20397;-47
2023/02/13 04:30:22;;;;;;;17.52;7.10;;;;;;;5.98;88.77;102278.16;5071554;28;20045;-45
2023/02/13 04:32:51;;;;;;;17.90;6.93;;;;;;;5.98;88.93;102277.38;5071091;28;20480;-46
2023/02/13 04:35:18;;;;;;;15.18;7.25;;;;;;;5.96;88.83;102280.38;5071088;28;20044;-45
2023/02/13 04:37:45;;;;;;;19.45;8.90;;;;;;;5.94;88.83;102268.00;5051213;28;20048;-45
2023/02/13 04:40:12;;;;;;;19.90;8.73;;;;;;;5.91;89.08;102274.88;5052018;28;20403;-47
2023/02/13 04:42:38;;;;;;;14.95;7.65;;;;;;;5.89;88.88;102274.34;5068016;28;20028;-46
2023/02/13 04:45:05;;;;;;;17.52;7.53;;;;;;;5.88;89.11;102269.09;5068031;28;20127;-49
2023/02/13 04:47:32;;;;;;;26.67;10.05;;;;;;;5.85;89.25;102270.50;5065205;28;20037;-54
2023/02/13 04:49:59;;;;;;;18.50;7.65;;;;;;;5.85;89.18;102261.44;5063318;28;20050;-45
2023/02/13 04:52:28;;;;;;;15.82;7.18;;;;;;;5.85;89.26;102261.44;5070722;28;20071;-45
2023/02/13 04:54:55;;;;;;;16.95;6.70;;;;;;;5.85;89.19;102265.00;5071054;28;20127;-46
2023/02/13 04:57:21;;;;;;;16.60;6.57;;;;;;;5.87;89.55;102264.72;5071294;28;20375;-45
2023/02/13 04:59:48;;;;;;;19.33;7.10;;;;;;;5.87;89.58;102265.56;5070725;28;20569;-54
2023/02/13 05:02:15;;;;;;;18.08;6.38;;;;;;;5.88;89.57;102258.13;5070775;28;20064;-45
2023/02/13 05:04:42;;;;;;;15.43;6.90;;;;;;;5.90;89.59;102262.25;5070556;28;20072;-50
2023/02/13 05:07:09;;;;;;;12.30;6.47;;;;;;;5.92;89.59;102261.97;5057741;28;20052;-51
2023/02/13 05:09:35;;;;;;;10.60;6.18;;;;;;;5.94;89.31;102273.50;5068847;28;20072;-45
2023/02/13 05:12:03;;;;;;;13.88;7.28;;;;;;;5.94;89.71;102268.84;5052839;28;20049;-46
2023/02/13 05:14:31;;;;;;;23.88;7.05;;;;;;;5.97;89.55;102270.22;5070883;28;20139;-45
2023/02/13 05:16:58;;;;;;;19.65;6.90;;;;;;;5.98;89.77;102274.63;5071049;28;20098;-45
2023/02/13 05:19:25;;;;;;;17.48;8.18;;;;;;;5.99;89.54;102281.75;5070271;28;20088;-45
2023/02/13 05:24:37;;;;;;;16.33;5.93;;;;;;;6.00;89.53;102278.75;5054989;28;20135;-47
2023/02/13 05:27:04;;;;;;;14.90;6.93;;;;;;;6.01;89.72;102276.81;5069674;28;20131;-45
2023/02/13 05:29:30;;;;;;;11.52;6.57;;;;;;;6.02;89.72;102272.94;5064329;28;20064;-45
2023/02/13 05:31:58;;;;;;;17.77;7.65;;;;;;;6.02;89.61;102276.53;5060437;28;20093;-53
2023/02/13 05:34:27;;;;;;;16.88;7.10;;;;;;;6.02;89.68;102272.94;5068923;28;20044;-47
2023/02/13 05:36:54;;;;;;;12.85;7.10;;;;;;;6.03;89.52;102269.09;5063437;28;20048;-48
2023/02/13 05:39:21;;;;;;;16.77;6.65;;;;;;;6.02;89.57;102267.44;5067272;28;20063;-45
2023/02/13 05:41:48;;;;;;;18.17;7.88;;;;;;;6.01;89.60;102268.56;5050414;28;20048;-45
2023/02/13 05:44:16;;;;;;;14.45;7.78;;;;;;;6.00;89.41;102264.16;5062127;28;20044;-46
2023/02/13 05:46:43;;;;;;;16.45;6.53;;;;;;;5.99;89.49;102262.50;5066358;28;20037;-45
2023/02/13 05:49:12;;;;;;;13.77;7.20;;;;;;;5.99;89.68;102260.59;5070951;28;20037;-45
2023/02/13 05:51:40;;;;;;;14.45;6.45;;;;;;;6.00;89.74;102250.41;5057853;28;20037;-46
2023/02/13 05:54:07;;;;;;;17.30;7.38;;;;;;;5.99;89.49;102248.75;5065674;28;20040;-49
2023/02/13 05:56:34;;;;;;;14.60;7.38;;;;;;;5.98;89.32;102238.88;5067424;28;20040;-45
2023/02/13 05:59:01;;;;;;;17.83;7.15;;;;;;;5.97;89.17;102243.56;5069030;28;20075;-46
2023/02/13 06:01:28;;;;;;;15.65;7.13;;;;;;;5.98;89.42;102241.63;5059081;28;20052;-46
2023/02/13 06:03:55;;;;;;;13.57;6.13;;;;;;;5.99;89.25;102246.00;5025033;28;20045;-47
2023/02/13 06:06:24;;;;;;;18.50;7.45;;;;;;;5.99;89.26;102243.25;5054066;28;20609;-46
2023/02/13 06:08:51;;;;;;;13.90;7.75;;;;;;;5.98;89.21;102244.38;5049326;28;20467;-45
2023/02/13 06:11:18;;;;;;;16.15;8.50;;;;;;;5.97;88.91;102237.22;5049409;28;20039;-45
2023/02/13 06:13:45;;;;;;;15.98;7.15;;;;;;;5.96;89.25;102236.41;5049659;28;20494;-47
2023/02/13 06:16:12;;;;;;;16.65;7.72;;;;;;;5.95;89.16;102239.44;5049443;28;20045;-45
2023/02/13 06:18:39;;;;;;;19.25;7.22;;;;;;;5.96;89.22;102239.16;5049300;28;20041;-51
2023/02/13 06:21:06;;;;;;;14.52;6.78;;;;;;;5.97;89.30;102231.72;5049193;28;20040;-45
2023/02/13 06:23:33;;;;;;;17.67;7.75;;;;;;;5.94;89.12;102235.84;5060293;28;20107;-48
2023/02/13 06:26:04;;;;;;;14.38;7.18;;;;;;;5.93;89.19;102236.16;5049338;28;20040;-45
2023/02/13 06:28:32;;;;;;;14.55;7.75;;;;;;;5.93;89.30;102231.44;5049165;28;20064;-47
2023/02/13 06:30:59;;;;;;;14.75;7.13;;;;;;;5.91;89.17;102233.66;5031288;28;20044;-45
2023/02/13 06:33:26;;;;;;;16.60;7.28;;;;;;;5.89;89.09;102229.53;5050170;28;20056;-45
2023/02/13 06:35:53;;;;;;;16.35;7.32;;;;;;;5.91;89.15;102227.34;5047478;28;20057;-46
2023/02/13 06:38:20;;;;;;;17.55;6.72;;;;;;;5.92;89.24;102235.31;5063188;28;20044;-45
2023/02/13 06:40:48;;;;;;;16.95;7.63;;;;;;;5.93;89.00;102236.16;5050780;28;20679;-47
2023/02/13 06:43:16;;;;;;;19.70;7.03;;;;;;;5.90;89.16;102233.94;5048990;28;20527;-46
2023/02/13 06:45:45;;;;;;;19.73;8.13;;;;;;;5.90;89.11;102225.69;5052330;28;20114;-48
2023/02/13 06:48:16;;;;;;;16.48;6.85;;;;;;;5.89;89.45;102226.78;5040478;28;20140;-46
2023/02/13 06:50:43;;;;;;;17.38;6.95;;;;;;;5.89;89.14;102229.53;5048603;28;20106;-47
2023/02/13 06:53:10;;;;;;;13.90;6.55;;;;;;;5.90;89.14;102232.03;5048521;28;20461;-45
2023/02/13 06:55:38;;;;;;;13.75;6.28;;;;;;;5.91;89.17;102228.16;5049154;28;20124;-46
2023/02/13 06:58:05;;;;;;;11.60;6.80;;;;;;;5.92;89.13;102237.25;5055190;28;20121;-45
2023/02/13 07:00:32;;;;;;;15.38;6.82;;;;;;;5.92;89.19;102237.25;5052951;28;20041;-45
2023/02/13 07:03:04;;;;;;;14.65;6.20;;;;;;;5.90;89.07;102237.53;5047400;28;20049;-45
2023/02/13 07:05:32;;;;;;;12.23;5.80;;;;;;;5.92;89.17;102234.50;5056008;28;20041;-48
2023/02/13 07:07:58;;;;;;;15.05;7.32;;;;;;;5.93;88.92;102231.44;5045818;28;20045;-46
2023/02/13 07:10:25;;;;;;;15.63;7.93;;;;;;;5.94;88.98;102224.03;5053803;28;20060;-45
2023/02/13 07:12:52;;;;;;;15.23;7.15;;;;;;;5.93;88.90;102225.94;5057367;28;20131;-52
2023/02/13 07:15:36;;;;;;;14.15;6.78;;;;;;;5.93;88.79;102227.91;5054621;28;20183;-45
2023/02/13 07:18:04;;;;;;;14.35;6.10;;;;;;;5.93;89.02;102230.66;5058145;28;20451;-46
2023/02/13 07:20:31;;;;;;;11.65;6.10;;;;;;;5.92;88.69;102223.50;5050708;28;20045;-46
2023/02/13 07:23:00;;;;;;;14.07;6.38;;;;;;;5.93;88.66;102219.66;5061119;28;20395;-45
2023/02/13 07:25:27;;;;;;;17.00;6.35;;;;;;;5.93;88.80;102231.44;5054549;28;20065;-46
2023/02/13 07:27:54;;;;;;;14.43;5.82;;;;;;;5.94;88.75;102235.03;5034552;28;20053;-46
2023/02/13 07:30:21;;;;;;;14.77;5.95;;;;;;;5.94;88.54;102237.78;5047148;28;20057;-53
2023/02/13 07:32:48;;;;;;;19.15;6.90;;;;;;;5.93;88.64;102228.69;5042068;28;20041;-47
2023/02/13 07:35:14;;;;;;;19.20;7.60;;;;;;;5.91;88.55;102222.66;5050137;28;20112;-50
2023/02/13 07:37:41;;;;;;;14.07;6.38;;;;;;;5.91;88.45;102222.66;5053199;28;20083;-46
2023/02/13 07:40:09;;;;;;;21.50;7.13;;;;;;;5.92;88.27;102223.50;5049478;28;20088;-50
2023/02/13 07:42:35;;;;;;;15.13;7.43;;;;;;;5.90;88.73;102215.53;5047896;28;20037;-45
2023/02/13 07:45:04;;;;;;;12.43;6.88;;;;;;;5.88;88.56;102223.22;5047443;28;20136;-45
2023/02/13 07:47:32;;;;;;;15.75;6.75;;;;;;;5.88;88.40;102233.38;5013839;28;20044;-50
2023/02/13 07:50:01;;;;;;;21.02;6.90;;;;;;;5.88;88.56;102236.13;5047674;28;20098;-45
2023/02/13 07:52:28;;;;;;;18.83;7.35;;;;;;;5.89;88.48;102229.53;5041045;28;20048;-46
2023/02/13 07:54:54;;;;;;;16.25;7.65;;;;;;;5.88;88.39;102234.22;5030102;28;20057;-46
2023/02/13 07:57:21;;;;;;;14.45;7.10;;;;;;;5.89;88.52;102232.28;5047715;28;20183;-45
2023/02/13 07:59:48;;;;;;;14.13;6.82;;;;;;;5.90;88.41;102228.44;5029586;28;20053;-46
2023/02/13 08:02:15;;;;;;;17.58;6.57;;;;;;;5.88;88.29;102225.13;5052796;28;20587;-54
2023/02/13 08:04:45;;;;;;;15.65;7.38;;;;;;;5.89;88.54;102233.13;5022073;28;20045;-52
2023/02/13 08:07:13;;;;;;;16.20;7.20;;;;;;;5.89;88.41;102229.53;5050093;28;20036;-54
2023/02/13 08:12:28;;;;;;;15.73;7.88;;;;;;;5.90;88.47;102244.94;5048294;28;20394;-51
2023/02/13 08:14:54;;;;;;;16.23;7.25;;;;;;;5.90;88.67;102244.94;5045465;28;20164;-47
2023/02/13 08:17:21;;;;;;;14.95;6.82;;;;;;;5.91;88.66;102244.66;5041120;28;20040;-46
2023/02/13 08:19:48;;;;;;;14.00;7.07;;;;;;;5.92;88.66;102245.47;5046211;28;20041;-46
2023/02/13 08:22:15;;;;;;;20.17;9.07;;;;;;;5.91;88.56;102260.31;5051887;28;20581;-47
2023/02/13 08:24:42;;;;;;;14.75;7.18;;;;;;;5.91;88.83;102255.66;5051064;28;20124;-47
2023/02/13 08:27:13;;;;;;;14.23;7.22;;;;;;;5.92;88.78;102260.06;5051839;28;20084;-46
2023/02/13 08:29:40;;;;;;;14.23;6.97;;;;;;;5.94;88.70;102259.75;5051180;28;20033;-49
2023/02/13 08:32:07;;;;;;;20.45;9.85;;;;;;;5.94;88.69;102260.59;5051392;28;20095;-49
2023/02/13 08:34:34;;;;;;;16.48;6.93;;;;;;;5.95;88.88;102244.94;5051347;28;20049;-45
2023/02/13 08:37:01;;;;;;;16.67;8.38;;;;;;;5.96;88.61;102250.13;5051716;28;20069;-46
2023/02/13 08:39:28;;;;;;;13.27;7.95;;;;;;;5.97;88.89;102249.06;5051271;28;20053;-47
2023/02/13 08:41:55;;;;;;;11.50;6.57;;;;;;;5.96;88.72;102241.06;5051735;28;20540;-46
2023/02/13 08:44:22;;;;;;;18.92;9.75;;;;;;;5.97;88.99;102243.56;5051049;28;20033;-45
2023/02/13 08:46:48;;;;;;;20.83;7.88;;;;;;;5.98;88.92;102252.63;5051635;28;20128;-48
2023/02/13 08:49:15;;;;;;;19.08;8.77;;;;;;;5.98;88.86;102247.13;5050927;28;20072;-49
2023/02/13 08:51:42;;;;;;;14.23;6.93;;;;;;;6.01;89.00;102247.38;5050974;28;20056;-46
2023/02/13 08:54:09;;;;;;;15.20;7.85;;;;;;;6.04;88.99;102254.25;5051040;28;20452;-50
2023/02/13 08:56:36;;;;;;;20.65;8.88;;;;;;;6.06;88.91;102258.34;5041419;28;20049;-46
2023/02/13 08:59:03;;;;;;;13.90;8.82;;;;;;;6.15;88.97;102261.38;5050644;28;20120;-54
2023/02/13 09:01:30;;;;;;;18.15;8.95;;;;;;;6.21;88.84;102257.50;5057510;28;20057;-50
2023/02/13 09:03:57;;;;;;;16.02;7.25;;;;;;;6.26;88.70;102263.00;5066648;28;20057;-47
2023/02/13 09:06:28;;;;;;;19.33;7.18;;;;;;;6.31;88.57;102251.97;5068849;28;20048;-49
2023/02/13 09:08:54;;;;;;;19.17;7.95;;;;;;;6.34;89.04;102254.19;5069366;28;20056;-47
2023/02/13 09:11:22;;;;;;;19.05;7.88;;;;;;;6.37;88.50;102261.88;5070123;28;20072;-47
2023/02/13 09:13:52;;;;;;;23.42;9.75;;;;;;;6.37;88.44;102250.88;5057391;28;20040;-46
2023/02/13 09:16:19;;;;;;;19.17;9.48;;;;;;;6.39;88.61;102262.41;5070461;28;20118;-49
2023/02/13 09:18:47;;;;;;;22.42;9.23;;;;;;;6.39;88.34;102256.91;5070892;28;20046;-47
2023/02/13 09:21:14;;;;;;;18.73;9.27;;;;;;;6.41;88.48;102262.94;5069932;28;20057;-51
2023/02/13 09:23:42;;;;;;;20.17;8.75;;;;;;;6.46;88.42;102260.16;5070753;28;20044;-46
2023/02/13 09:26:14;;;;;;;16.40;8.95;;;;;;;6.50;88.52;102263.19;5070155;28;20144;-54
2023/02/13 09:28:41;;;;;;;22.45;8.90;;;;;;;6.54;88.43;102250.53;5071300;28;20036;-46
2023/02/13 09:31:11;;;;;;;16.40;8.38;;;;;;;6.57;88.19;102250.78;5069792;28;20045;-46
2023/02/13 09:33:41;;;;;;;22.48;9.00;;;;;;;6.60;88.11;102246.63;5069946;28;20044;-47
2023/02/13 09:36:12;;;;;;;21.15;9.60;;;;;;;6.64;88.14;102244.97;5069930;28;20033;-47
2023/02/13 09:38:42;;;;;;;25.88;9.90;;;;;;;6.65;88.04;102252.94;5070186;28;20048;-48
2023/02/13 09:41:18;;;;;;;21.05;10.65;;;;;;;6.65;87.85;102261.19;5070360;28;20044;-47
2023/02/13 09:44:32;;;;;;;21.23;9.32;;;;;;;6.66;87.81;102253.78;5070231;28;20051;-46
2023/02/13 09:47:05;;;;;;;16.75;8.80;;;;;;;6.64;87.85;102251.31;5070631;28;20080;-47
2023/02/13 09:49:36;;;;;;;21.55;10.57;;;;;;;6.64;87.65;102242.22;5070146;28;20040;-53
2023/02/13 09:52:03;;;;;;;17.83;9.73;;;;;;;6.65;87.45;102239.19;5069920;28;20247;-48
2023/02/13 09:54:31;;;;;;;23.67;10.07;;;;;;;6.66;87.66;102243.59;5051966;28;20401;-50
2023/02/13 09:57:07;;;;;;;17.48;9.18;;;;;;;6.67;87.24;102241.66;5051745;28;20044;-46
2023/02/13 09:59:40;;;;;;;19.00;9.57;;;;;;;6.71;87.43;102243.56;5069626;28;20063;-47
2023/02/13 10:02:44;;;;;;;16.77;8.95;;;;;;;6.74;87.21;102244.94;5070065;28;20129;-55
2023/02/13 10:05:36;;;;;;;18.52;9.07;;;;;;;6.75;87.04;102250.13;5066082;28;20076;-47
2023/02/13 10:08:10;;;;;;;19.97;11.57;;;;;;;6.80;86.84;102251.22;5069408;28;20127;-49
2023/02/13 10:10:56;;;;;;;19.88;9.27;;;;;;;6.81;86.52;102253.69;5069153;28;20620;-46
2023/02/13 10:13:30;;;;;;;19.50;10.13;;;;;;;6.85;86.60;102256.72;5069309;28;20047;-54
2023/02/13 10:16:22;;;;;;;22.23;9.65;;;;;;;6.85;86.45;102251.19;5069718;28;20072;-49
2023/02/13 10:19:21;;;;;;;17.95;9.43;;;;;;;6.85;86.28;102251.19;5069636;28;20052;-46
2023/02/13 10:21:57;;;;;;;19.67;9.50;;;;;;;6.86;86.18;102245.41;5038330;28;20131;-48
2023/02/13 10:24:34;;;;;;;18.50;9.93;;;;;;;6.88;86.15;102245.13;5069007;28;20619;-56
2023/02/13 10:27:14;;;;;;;16.90;10.75;;;;;;;6.89;86.14;102244.00;5069197;28;20040;-46
2023/02/13 10:30:04;;;;;;;20.35;9.68;;;;;;;6.91;85.92;102241.81;5069355;28;20098;-46
2023/02/13 10:32:36;;;;;;;21.40;9.85;;;;;;;6.94;85.99;102232.97;5069581;28;20075;-44
2023/02/13 10:35:16;;;;;;;23.02;10.30;;;;;;;6.99;85.78;102243.97;5068913;28;20036;-45
2023/02/13 10:37:49;;;;;;;19.08;10.25;;;;;;;6.99;86.03;102244.78;5069630;28;20036;-45
2023/02/13 10:40:17;;;;;;;22.08;11.82;;;;;;;7.02;85.69;102244.19;5068963;28;20499;-46
2023/02/13 10:42:55;;;;;;;23.13;10.15;;;;;;;7.05;85.62;102254.66;5067821;28;20056;-45
2023/02/13 10:45:56;;;;;;;22.45;11.88;;;;;;;7.10;85.73;102251.03;5068506;28;20048;-46
2023/02/13 10:48:54;;;;;;;18.48;10.07;;;;;;;7.22;85.73;102243.25;5050595;28;20079;-46
2023/02/13 10:51:26;;;;;;;22.77;10.05;;;;;;;7.32;85.63;102248.69;5040670;28;20072;-45
2023/02/13 10:53:58;;;;;;;21.98;9.70;;;;;;;7.44;85.51;102246.38;5069253;28;20049;-46
2023/02/13 10:56:25;;;;;;;;;;;;;;;7.56;85.16;102255.13;5069042;28;20120;-46
2023/02/13 10:59:03;;;;;;;20.25;12.18;;;;;;;7.65;85.35;102247.06;5068629;28;20111;-46
2023/02/13 11:01:33;;;;;;;20.30;10.32;;;;;;;7.73;85.21;102244.47;5068980;28;20056;-46
2023/02/13 11:04:05;;;;;;;18.20;10.48;;;;;;;7.81;85.22;102257.63;5055894;28;20498;-46
2023/02/13 11:06:35;;;;;;;17.45;10.00;;;;;;;7.93;85.24;102249.81;5068429;28;20136;-47
2023/02/13 11:09:03;;;;;;;27.00;10.98;;;;;;;8.12;85.34;102246.31;5068249;28;20041;-46
2023/02/13 11:11:32;;;;;;;21.23;11.23;;;;;;;8.27;84.99;102251.69;5068728;28;20553;-48
2023/02/13 11:14:13;;;;;;;22.63;10.73;;;;;;;8.38;84.84;102244.94;5068885;28;20052;-45
2023/02/13 11:16:43;;;;;;;24.08;11.00;;;;;;;8.45;84.80;102259.19;5068387;28;20041;-47
2023/02/13 11:19:45;;;;;;;20.80;10.75;;;;;;;8.56;84.90;102255.19;5068438;28;20050;-46
2023/02/13 11:22:14;;;;;;;;;;;;;;;8.67;85.09;102239.34;5043698;28;20131;-46
2023/02/13 11:24:49;;;;;;;19.90;9.75;;;;;;;8.79;85.04;102248.81;5068291;28;19928;-47
2023/02/13 11:27:27;;;;;;;17.52;9.38;;;;;;;8.88;84.64;102238.75;5069141;28;20060;-52
2023/02/13 11:29:57;;;;;;;21.85;10.90;;;;;;;8.94;84.65;102237.59;5068307;28;20040;-51
2023/02/13 11:32:27;;;;;;;21.02;10.18;;;;;;;9.00;84.42;102241.91;5068655;28;20051;-56
2023/02/13 11:34:55;;;;;;;19.85;10.73;;;;;;;9.00;84.17;102225.31;5068120;28;20506;-50
2023/02/13 11:37:31;;;;;;;18.92;11.75;;;;;;;9.07;84.20;102239.59;5068312;28;20048;-50
2023/02/13 11:40:19;;;;;;;19.13;9.45;;;;;;;9.14;83.94;102237.28;5050515;28;20059;-48
2023/02/13 11:42:49;;;;;;;23.55;11.10;;;;;;;9.22;83.86;102232.19;5068488;28;20155;-48
2023/02/13 11:45:22;;;;;;;18.38;10.07;;;;;;;9.26;83.60;102227.72;5068825;28;20060;-53
2023/02/13 11:47:52;;;;;;;19.77;10.02;;;;;;;9.25;82.89;102215.00;5049185;28;20834;-54
2023/02/13 11:50:35;;;;;;;21.67;11.32;;;;;;;9.25;83.00;102215.84;5043969;28;20083;-46
2023/02/13 11:53:14;;;;;;;26.85;10.88;;;;;;;9.21;82.80;102213.97;5069136;28;20052;-47
2023/02/13 11:56:01;;;;;;;15.70;9.68;;;;;;;9.10;82.58;102214.16;5072091;28;20044;-46
2023/02/13 11:58:29;;;;;;;19.00;10.98;;;;;;;9.00;82.32;102214.28;5072006;28;20049;-46
2023/02/13 12:01:20;;;;;;;24.10;11.35;;;;;;;8.98;82.46;102199.94;5071872;28;20048;-53
2023/02/13 12:04:06;;;;;;;18.95;10.32;;;;;;;8.99;82.35;102189.72;5049177;28;20095;-47
2023/02/13 12:06:38;;;;;;;19.23;10.32;;;;;;;8.98;82.08;102188.06;5053774;28;20402;-47
2023/02/13 12:09:14;;;;;;;;;;;;;;;8.95;81.83;102197.78;5072623;28;20052;-47
2023/02/13 12:11:52;;;;;;;16.08;10.07;;;;;;;8.92;81.85;102189.28;5071587;28;19931;-47
2023/02/13 12:14:24;;;;;;;18.00;9.70;;;;;;;8.89;81.77;102179.66;5054000;28;20048;-47
2023/02/13 12:17:11;;;;;;;21.42;10.15;;;;;;;8.89;81.78;102174.13;5071531;28;20052;-46
2023/02/13 12:19:55;;;;;;;20.40;10.23;;;;;;;8.91;81.88;102169.13;5071755;28;20566;-46
2023/02/13 12:22:37;;;;;;;20.88;10.88;;;;;;;8.91;81.68;102166.38;5071646;28;20147;-46
2023/02/13 12:25:25;;;;;;;20.38;9.85;;;;;;;8.97;81.36;102165.19;5054161;28;20135;-46